sensor_id;sensor_type;location;lat;lon;timestamp;temperature;humidity
50544;DHT22;41176;44.032;20.900;2022-07-04T05:02:55;25.20;99.90
50544;DHT22;41176;44.032;20.900;2022-07-04T05:05:21;25.30;99.90
50544;DHT22;41176;44.032;20.900;2022-07-04T05:07:47;25.50;99.90
50544;DHT22;41176;44.032;20.900;2022-07-04T05:10:13;25.60;99.90
50544;DHT22;41176;44.032;20.900;2022-07-04T05:12:45;25.60;99.90
50544;DHT22;41176;44.032;20.900;2022-07-04T05:15:11;25.60;99.90
50544;DHT22;41176;44.032;20.900;2022-07-04T05:17:37;25.70;99.90
50544;DHT22;41176;44.032;20.900;2022-07-04T05:20:04;25.80;99.10
50544;DHT22;41176;44.032;20.900;2022-07-04T05:22:30;25.70;98.90
50544;DHT22;41176;44.032;20.900;2022-07-04T05:24:55;25.80;99.30
50544;DHT22;41176;44.032;20.900;2022-07-04T05:27:21;25.90;98.80
50544;DHT22;41176;44.032;20.900;2022-07-04T05:29:47;26.00;98.80
50544;DHT22;41176;44.032;20.900;2022-07-04T05:32:13;26.00;98.70
50544;DHT22;41176;44.032;20.900;2022-07-04T05:34:38;26.00;97.80
50544;DHT22;41176;44.032;20.900;2022-07-04T05:37:04;26.10;97.90
50544;DHT22;41176;44.032;20.900;2022-07-04T05:39:30;26.20;98.00
50544;DHT22;41176;44.032;20.900;2022-07-04T05:41:56;26.30;97.50
50544;DHT22;41176;44.032;20.900;2022-07-04T05:44:21;26.40;97.80
50544;DHT22;41176;44.032;20.900;2022-07-04T05:46:47;26.40;96.90
50544;DHT22;41176;44.032;20.900;2022-07-04T05:49:13;26.40;97.20
50544;DHT22;41176;44.032;20.900;2022-07-04T05:51:38;26.50;96.90
50544;DHT22;41176;44.032;20.900;2022-07-04T05:54:04;26.60;97.30
50544;DHT22;41176;44.032;20.900;2022-07-04T05:56:30;26.70;96.30
50544;DHT22;41176;44.032;20.900;2022-07-04T05:58:56;26.70;96.50
50544;DHT22;41176;44.032;20.900;2022-07-04T06:01:21;26.70;96.50
50544;DHT22;41176;44.032;20.900;2022-07-04T06:03:48;26.80;95.90
50544;DHT22;41176;44.032;20.900;2022-07-04T06:06:14;26.90;96.70
50544;DHT22;41176;44.032;20.900;2022-07-04T06:08:41;26.90;95.80
50544;DHT22;41176;44.032;20.900;2022-07-04T06:11:07;27.00;95.30
50544;DHT22;41176;44.032;20.900;2022-07-04T06:13:32;27.10;94.90
50544;DHT22;41176;44.032;20.900;2022-07-04T06:15:58;27.30;95.30
50544;DHT22;41176;44.032;20.900;2022-07-04T06:18:24;27.50;94.80
50544;DHT22;41176;44.032;20.900;2022-07-04T06:20:49;27.50;94.10
50544;DHT22;41176;44.032;20.900;2022-07-04T06:23:15;27.70;93.60
50544;DHT22;41176;44.032;20.900;2022-07-04T06:25:41;27.80;92.90
50544;DHT22;41176;44.032;20.900;2022-07-04T06:28:07;27.90;92.70
50544;DHT22;41176;44.032;20.900;2022-07-04T06:30:34;28.10;93.10
50544;DHT22;41176;44.032;20.900;2022-07-04T06:33:00;28.30;93.20
50544;DHT22;41176;44.032;20.900;2022-07-04T06:35:28;28.50;92.40
50544;DHT22;41176;44.032;20.900;2022-07-04T06:38:26;28.60;92.40
50544;DHT22;41176;44.032;20.900;2022-07-04T06:40:56;28.80;91.50
50544;DHT22;41176;44.032;20.900;2022-07-04T06:43:23;28.80;91.10
50544;DHT22;41176;44.032;20.900;2022-07-04T06:45:49;29.00;90.20
50544;DHT22;41176;44.032;20.900;2022-07-04T06:48:16;29.10;90.10
50544;DHT22;41176;44.032;20.900;2022-07-04T06:50:42;29.20;90.10
50544;DHT22;41176;44.032;20.900;2022-07-04T06:53:09;29.30;89.20
50544;DHT22;41176;44.032;20.900;2022-07-04T06:55:36;29.50;90.00
50544;DHT22;41176;44.032;20.900;2022-07-04T06:58:03;29.60;87.40
50544;DHT22;41176;44.032;20.900;2022-07-04T07:00:29;29.70;87.00
50544;DHT22;41176;44.032;20.900;2022-07-04T07:02:59;29.80;83.80
50544;DHT22;41176;44.032;20.900;2022-07-04T07:05:26;29.90;83.90
50544;DHT22;41176;44.032;20.900;2022-07-04T07:07:52;29.90;84.10
50544;DHT22;41176;44.032;20.900;2022-07-04T07:10:18;30.00;83.60
50544;DHT22;41176;44.032;20.900;2022-07-04T07:12:44;30.10;82.20
50544;DHT22;41176;44.032;20.900;2022-07-04T07:15:10;30.30;82.90
50544;DHT22;41176;44.032;20.900;2022-07-04T07:17:35;30.40;80.80
50544;DHT22;41176;44.032;20.900;2022-07-04T07:20:02;30.70;80.20
50544;DHT22;41176;44.032;20.900;2022-07-04T07:22:28;30.70;78.40
50544;DHT22;41176;44.032;20.900;2022-07-04T07:24:53;30.70;79.00
50544;DHT22;41176;44.032;20.900;2022-07-04T07:27:19;30.80;78.70
50544;DHT22;41176;44.032;20.900;2022-07-04T07:29:45;31.00;78.90
50544;DHT22;41176;44.032;20.900;2022-07-04T07:32:11;31.20;77.50
50544;DHT22;41176;44.032;20.900;2022-07-04T07:34:37;31.40;76.70
50544;DHT22;41176;44.032;20.900;2022-07-04T07:37:03;31.40;78.00
50544;DHT22;41176;44.032;20.900;2022-07-04T07:39:29;31.50;76.50
50544;DHT22;41176;44.032;20.900;2022-07-04T07:41:55;31.80;76.20
50544;DHT22;41176;44.032;20.900;2022-07-04T07:44:20;31.90;74.30
50544;DHT22;41176;44.032;20.900;2022-07-04T07:46:46;32.00;75.70
50544;DHT22;41176;44.032;20.900;2022-07-04T07:49:12;32.20;73.50
50544;DHT22;41176;44.032;20.900;2022-07-04T07:51:38;32.50;73.20
50544;DHT22;41176;44.032;20.900;2022-07-04T07:54:03;32.50;71.30
50544;DHT22;41176;44.032;20.900;2022-07-04T07:56:29;32.60;72.00
50544;DHT22;41176;44.032;20.900;2022-07-04T07:58:55;32.70;70.00
50544;DHT22;41176;44.032;20.900;2022-07-04T08:01:21;32.60;71.20
50544;DHT22;41176;44.032;20.900;2022-07-04T08:03:47;32.70;71.70
50544;DHT22;41176;44.032;20.900;2022-07-04T08:06:32;32.90;71.60
50544;DHT22;41176;44.032;20.900;2022-07-04T08:08:58;33.10;70.10
50544;DHT22;41176;44.032;20.900;2022-07-04T08:11:24;33.20;68.90
50544;DHT22;41176;44.032;20.900;2022-07-04T08:13:50;33.20;68.90
50544;DHT22;41176;44.032;20.900;2022-07-04T08:16:16;33.20;68.50
50544;DHT22;41176;44.032;20.900;2022-07-04T08:18:42;33.40;68.00
50544;DHT22;41176;44.032;20.900;2022-07-04T08:21:08;33.60;66.80
50544;DHT22;41176;44.032;20.900;2022-07-04T08:23:33;33.50;67.90
50544;DHT22;41176;44.032;20.900;2022-07-04T08:26:03;33.70;68.40
50544;DHT22;41176;44.032;20.900;2022-07-04T08:28:29;34.20;68.70
50544;DHT22;41176;44.032;20.900;2022-07-04T08:30:57;34.50;67.30
50544;DHT22;41176;44.032;20.900;2022-07-04T08:33:24;34.80;68.00
50544;DHT22;41176;44.032;20.900;2022-07-04T08:35:50;35.00;66.50
50544;DHT22;41176;44.032;20.900;2022-07-04T08:38:16;35.40;65.00
50544;DHT22;41176;44.032;20.900;2022-07-04T08:40:42;35.60;63.80
50544;DHT22;41176;44.032;20.900;2022-07-04T08:43:13;35.70;64.00
50544;DHT22;41176;44.032;20.900;2022-07-04T08:45:40;35.90;62.70
50544;DHT22;41176;44.032;20.900;2022-07-04T08:48:08;36.10;62.90
50544;DHT22;41176;44.032;20.900;2022-07-04T08:50:47;36.40;62.40
50544;DHT22;41176;44.032;20.900;2022-07-04T08:53:19;36.70;62.20
50544;DHT22;41176;44.032;20.900;2022-07-04T08:55:47;36.70;61.20
50544;DHT22;41176;44.032;20.900;2022-07-04T08:58:45;36.60;62.60
50544;DHT22;41176;44.032;20.900;2022-07-04T09:01:12;36.80;61.10
50544;DHT22;41176;44.032;20.900;2022-07-04T09:03:43;36.40;60.90
50544;DHT22;41176;44.032;20.900;2022-07-04T09:06:10;36.40;61.50
50544;DHT22;41176;44.032;20.900;2022-07-04T09:08:37;36.70;61.10
50544;DHT22;41176;44.032;20.900;2022-07-04T09:11:04;36.80;62.00
50544;DHT22;41176;44.032;20.900;2022-07-04T09:13:31;36.90;59.50
50544;DHT22;41176;44.032;20.900;2022-07-04T09:15:57;36.60;61.30
50544;DHT22;41176;44.032;20.900;2022-07-04T09:20:55;36.70;60.70
50544;DHT22;41176;44.032;20.900;2022-07-04T09:23:27;36.60;61.60
50544;DHT22;41176;44.032;20.900;2022-07-04T09:26:13;36.20;61.80
50544;DHT22;41176;44.032;20.900;2022-07-04T09:28:44;35.90;62.60
50544;DHT22;41176;44.032;20.900;2022-07-04T09:31:15;35.90;62.40
50544;DHT22;41176;44.032;20.900;2022-07-04T09:33:50;35.70;63.10
50544;DHT22;41176;44.032;20.900;2022-07-04T09:36:19;35.80;63.40
50544;DHT22;41176;44.032;20.900;2022-07-04T09:38:45;35.80;62.70
50544;DHT22;41176;44.032;20.900;2022-07-04T09:41:11;35.90;62.80
50544;DHT22;41176;44.032;20.900;2022-07-04T09:44:03;36.00;62.80
50544;DHT22;41176;44.032;20.900;2022-07-04T09:46:29;35.80;62.50
50544;DHT22;41176;44.032;20.900;2022-07-04T09:48:55;35.60;64.20
50544;DHT22;41176;44.032;20.900;2022-07-04T09:51:56;35.70;63.70
50544;DHT22;41176;44.032;20.900;2022-07-04T09:54:27;35.90;63.80
50544;DHT22;41176;44.032;20.900;2022-07-04T09:57:01;36.10;64.10
50544;DHT22;41176;44.032;20.900;2022-07-04T09:59:29;36.30;63.30
50544;DHT22;41176;44.032;20.900;2022-07-04T10:02:11;36.20;63.00
50544;DHT22;41176;44.032;20.900;2022-07-04T10:04:48;36.00;62.80
50544;DHT22;41176;44.032;20.900;2022-07-04T10:07:36;35.80;64.30
50544;DHT22;41176;44.032;20.900;2022-07-04T10:12:50;35.30;64.80
50544;DHT22;41176;44.032;20.900;2022-07-04T10:15:17;34.90;65.70
50544;DHT22;41176;44.032;20.900;2022-07-04T10:17:43;34.80;66.40
50544;DHT22;41176;44.032;20.900;2022-07-04T10:20:11;35.10;65.70
50544;DHT22;41176;44.032;20.900;2022-07-04T10:22:37;35.10;64.10
50544;DHT22;41176;44.032;20.900;2022-07-04T10:25:04;35.10;66.10
50544;DHT22;41176;44.032;20.900;2022-07-04T10:27:30;35.30;65.30
50544;DHT22;41176;44.032;20.900;2022-07-04T10:29:58;35.30;63.70
50544;DHT22;41176;44.032;20.900;2022-07-04T10:32:25;35.30;64.10
50544;DHT22;41176;44.032;20.900;2022-07-04T10:34:52;35.50;63.30
50544;DHT22;41176;44.032;20.900;2022-07-04T10:37:17;35.70;61.60
50544;DHT22;41176;44.032;20.900;2022-07-04T10:39:43;35.80;62.20
50544;DHT22;41176;44.032;20.900;2022-07-04T10:42:22;35.80;62.00
50544;DHT22;41176;44.032;20.900;2022-07-04T10:44:49;35.80;62.70
50544;DHT22;41176;44.032;20.900;2022-07-04T10:47:33;35.80;62.30
50544;DHT22;41176;44.032;20.900;2022-07-04T10:49:59;36.00;61.60
50544;DHT22;41176;44.032;20.900;2022-07-04T10:52:25;36.20;62.70
50544;DHT22;41176;44.032;20.900;2022-07-04T10:54:50;36.30;60.80
50544;DHT22;41176;44.032;20.900;2022-07-04T10:57:28;36.40;61.70
50544;DHT22;41176;44.032;20.900;2022-07-04T11:02:25;36.40;61.30
50544;DHT22;41176;44.032;20.900;2022-07-04T11:04:54;36.50;61.70
50544;DHT22;41176;44.032;20.900;2022-07-04T11:18:12;36.50;58.70
50544;DHT22;41176;44.032;20.900;2022-07-04T11:20:43;36.70;58.70
50544;DHT22;41176;44.032;20.900;2022-07-04T11:23:11;36.80;57.20
50544;DHT22;41176;44.032;20.900;2022-07-04T11:25:39;36.90;57.60
50544;DHT22;41176;44.032;20.900;2022-07-04T11:28:24;36.90;58.10
50544;DHT22;41176;44.032;20.900;2022-07-04T11:30:51;37.00;56.10
50544;DHT22;41176;44.032;20.900;2022-07-04T11:33:18;37.00;55.50
50544;DHT22;41176;44.032;20.900;2022-07-04T11:36:05;37.10;55.60
50544;DHT22;41176;44.032;20.900;2022-07-04T11:38:44;37.10;56.60
50544;DHT22;41176;44.032;20.900;2022-07-04T11:41:09;37.20;57.00
50544;DHT22;41176;44.032;20.900;2022-07-04T11:43:54;37.10;56.40
50544;DHT22;41176;44.032;20.900;2022-07-04T11:46:39;37.00;57.60
50544;DHT22;41176;44.032;20.900;2022-07-04T11:49:12;36.90;57.30
50544;DHT22;41176;44.032;20.900;2022-07-04T11:51:46;36.80;56.40
50544;DHT22;41176;44.032;20.900;2022-07-04T11:54:12;36.60;56.20
50544;DHT22;41176;44.032;20.900;2022-07-04T11:56:38;36.50;57.20
50544;DHT22;41176;44.032;20.900;2022-07-04T11:59:15;36.50;56.30
50544;DHT22;41176;44.032;20.900;2022-07-04T12:01:42;36.50;56.30
50544;DHT22;41176;44.032;20.900;2022-07-04T12:04:13;36.50;56.20
50544;DHT22;41176;44.032;20.900;2022-07-04T12:06:40;36.60;55.60
50544;DHT22;41176;44.032;20.900;2022-07-04T12:09:10;36.50;55.20
50544;DHT22;41176;44.032;20.900;2022-07-04T12:12:00;36.40;56.50
50544;DHT22;41176;44.032;20.900;2022-07-04T12:14:27;36.10;56.70
50544;DHT22;41176;44.032;20.900;2022-07-04T12:17:18;36.10;56.40
50544;DHT22;41176;44.032;20.900;2022-07-04T12:19:52;36.20;57.10
50544;DHT22;41176;44.032;20.900;2022-07-04T12:22:41;36.20;57.40
50544;DHT22;41176;44.032;20.900;2022-07-04T12:25:18;36.20;56.10
50544;DHT22;41176;44.032;20.900;2022-07-04T12:27:56;36.20;56.20
50544;DHT22;41176;44.032;20.900;2022-07-04T12:30:22;36.20;56.00
50544;DHT22;41176;44.032;20.900;2022-07-04T12:32:53;36.10;57.60
50544;DHT22;41176;44.032;20.900;2022-07-04T12:38:18;36.00;57.60
50544;DHT22;41176;44.032;20.900;2022-07-04T12:41:13;36.00;58.20
50544;DHT22;41176;44.032;20.900;2022-07-04T12:46:26;35.50;60.50
50544;DHT22;41176;44.032;20.900;2022-07-04T12:48:54;35.30;60.70
50544;DHT22;41176;44.032;20.900;2022-07-04T12:51:20;35.30;60.00
50544;DHT22;41176;44.032;20.900;2022-07-04T12:53:49;35.30;59.60
50544;DHT22;41176;44.032;20.900;2022-07-04T12:56:31;35.30;60.60
50544;DHT22;41176;44.032;20.900;2022-07-04T12:59:03;35.20;60.10
50544;DHT22;41176;44.032;20.900;2022-07-04T13:01:32;35.10;60.50
50544;DHT22;41176;44.032;20.900;2022-07-04T13:03:59;35.10;58.70
50544;DHT22;41176;44.032;20.900;2022-07-04T13:06:25;35.20;59.10
50544;DHT22;41176;44.032;20.900;2022-07-04T13:12:28;35.50;58.90
50544;DHT22;41176;44.032;20.900;2022-07-04T13:15:30;35.70;57.00
50544;DHT22;41176;44.032;20.900;2022-07-04T13:18:06;35.80;58.40
50544;DHT22;41176;44.032;20.900;2022-07-04T13:20:35;35.70;57.40
50544;DHT22;41176;44.032;20.900;2022-07-04T13:23:08;35.80;56.20
50544;DHT22;41176;44.032;20.900;2022-07-04T13:25:34;35.90;57.50
50544;DHT22;41176;44.032;20.900;2022-07-04T13:27:59;35.90;57.20
50544;DHT22;41176;44.032;20.900;2022-07-04T13:30:25;36.00;57.10
50544;DHT22;41176;44.032;20.900;2022-07-04T13:32:51;36.10;56.90
50544;DHT22;41176;44.032;20.900;2022-07-04T13:35:35;36.20;57.30
50544;DHT22;41176;44.032;20.900;2022-07-04T13:38:01;36.40;55.90
50544;DHT22;41176;44.032;20.900;2022-07-04T13:40:36;36.50;57.70
50544;DHT22;41176;44.032;20.900;2022-07-04T13:43:07;36.50;56.30
50544;DHT22;41176;44.032;20.900;2022-07-04T13:45:36;36.40;55.00
50544;DHT22;41176;44.032;20.900;2022-07-04T13:48:02;36.50;55.40
50544;DHT22;41176;44.032;20.900;2022-07-04T13:50:28;36.40;55.50
50544;DHT22;41176;44.032;20.900;2022-07-04T13:52:53;36.50;54.80
50544;DHT22;41176;44.032;20.900;2022-07-04T13:55:19;36.40;54.50
50544;DHT22;41176;44.032;20.900;2022-07-04T13:57:48;36.30;55.50
50544;DHT22;41176;44.032;20.900;2022-07-04T14:00:14;36.10;55.80
50544;DHT22;41176;44.032;20.900;2022-07-04T14:02:41;36.20;54.60
50544;DHT22;41176;44.032;20.900;2022-07-04T14:05:06;36.10;53.30
50544;DHT22;41176;44.032;20.900;2022-07-04T14:07:32;36.20;53.40
50544;DHT22;41176;44.032;20.900;2022-07-04T14:10:08;36.30;52.90
50544;DHT22;41176;44.032;20.900;2022-07-04T14:12:34;36.40;51.70
50544;DHT22;41176;44.032;20.900;2022-07-04T14:14:59;36.30;51.40
50544;DHT22;41176;44.032;20.900;2022-07-04T14:17:25;36.30;51.40
50544;DHT22;41176;44.032;20.900;2022-07-04T14:19:51;36.40;52.40
50544;DHT22;41176;44.032;20.900;2022-07-04T14:22:17;36.40;52.20
50544;DHT22;41176;44.032;20.900;2022-07-04T14:24:42;36.40;50.70
50544;DHT22;41176;44.032;20.900;2022-07-04T14:27:08;36.40;51.20
50544;DHT22;41176;44.032;20.900;2022-07-04T14:29:34;36.30;52.20
50544;DHT22;41176;44.032;20.900;2022-07-04T14:32:00;36.20;52.70
50544;DHT22;41176;44.032;20.900;2022-07-04T14:34:26;36.20;54.10
50544;DHT22;41176;44.032;20.900;2022-07-04T14:36:51;36.20;53.70
50544;DHT22;41176;44.032;20.900;2022-07-04T14:39:17;36.20;53.90
50544;DHT22;41176;44.032;20.900;2022-07-04T14:41:47;36.30;54.90
50544;DHT22;41176;44.032;20.900;2022-07-04T14:44:13;36.20;54.80
50544;DHT22;41176;44.032;20.900;2022-07-04T14:46:38;36.20;52.20
50544;DHT22;41176;44.032;20.900;2022-07-04T14:49:04;36.20;51.80
50544;DHT22;41176;44.032;20.900;2022-07-04T14:51:30;36.30;50.40
50544;DHT22;41176;44.032;20.900;2022-07-04T14:53:56;36.30;51.00
50544;DHT22;41176;44.032;20.900;2022-07-04T14:56:22;36.30;51.50
50544;DHT22;41176;44.032;20.900;2022-07-04T14:58:47;36.10;53.90
50544;DHT22;41176;44.032;20.900;2022-07-04T15:01:21;36.00;55.20
50544;DHT22;41176;44.032;20.900;2022-07-04T15:03:49;36.10;55.90
50544;DHT22;41176;44.032;20.900;2022-07-04T15:06:15;36.00;55.30
50544;DHT22;41176;44.032;20.900;2022-07-04T15:08:41;35.90;56.40
50544;DHT22;41176;44.032;20.900;2022-07-04T15:11:07;35.90;55.90
50544;DHT22;41176;44.032;20.900;2022-07-04T15:13:33;36.00;55.80
50544;DHT22;41176;44.032;20.900;2022-07-04T15:15:58;36.00;56.20
50544;DHT22;41176;44.032;20.900;2022-07-04T15:18:30;36.00;56.50
50544;DHT22;41176;44.032;20.900;2022-07-04T15:20:56;35.90;55.00
50544;DHT22;41176;44.032;20.900;2022-07-04T15:23:40;35.90;54.70
50544;DHT22;41176;44.032;20.900;2022-07-04T15:26:25;35.80;55.50
50544;DHT22;41176;44.032;20.900;2022-07-04T15:28:57;35.80;55.40
50544;DHT22;41176;44.032;20.900;2022-07-04T15:31:22;35.70;55.30
50544;DHT22;41176;44.032;20.900;2022-07-04T15:33:48;35.60;55.70
50544;DHT22;41176;44.032;20.900;2022-07-04T15:36:20;35.60;55.50
50544;DHT22;41176;44.032;20.900;2022-07-04T15:39:12;35.60;56.40
50544;DHT22;41176;44.032;20.900;2022-07-04T15:41:39;35.60;55.60
50544;DHT22;41176;44.032;20.900;2022-07-04T15:44:15;35.50;55.60
50544;DHT22;41176;44.032;20.900;2022-07-04T15:46:42;35.50;55.40
50544;DHT22;41176;44.032;20.900;2022-07-04T15:49:48;35.40;55.90
50544;DHT22;41176;44.032;20.900;2022-07-04T16:44:06;35.40;57.90
50544;DHT22;41176;44.032;20.900;2022-07-04T16:50:44;35.20;57.50
50544;DHT22;41176;44.032;20.900;2022-07-04T16:56:52;35.00;57.30
50544;DHT22;41176;44.032;20.900;2022-07-04T19:00:38;29.80;72.90
50544;DHT22;41176;44.032;20.900;2022-07-04T19:03:35;29.90;72.80
50544;DHT22;41176;44.032;20.900;2022-07-04T19:06:26;29.70;72.40
50544;DHT22;41176;44.032;20.900;2022-07-04T19:08:56;29.60;73.40
50544;DHT22;41176;44.032;20.900;2022-07-04T19:11:47;29.50;73.70
50544;DHT22;41176;44.032;20.900;2022-07-04T19:14:23;29.50;73.70
50544;DHT22;41176;44.032;20.900;2022-07-04T19:16:58;29.50;74.00
50544;DHT22;41176;44.032;20.900;2022-07-04T19:19:24;29.40;74.40
50544;DHT22;41176;44.032;20.900;2022-07-04T19:21:50;29.30;74.30
50544;DHT22;41176;44.032;20.900;2022-07-04T19:24:33;29.20;74.80
50544;DHT22;41176;44.032;20.900;2022-07-04T19:30:55;29.20;74.90
50544;DHT22;41176;44.032;20.900;2022-07-04T19:33:21;29.10;74.60
50544;DHT22;41176;44.032;20.900;2022-07-04T19:35:48;29.10;74.10
50544;DHT22;41176;44.032;20.900;2022-07-04T19:44:29;29.10;74.90
50544;DHT22;41176;44.032;20.900;2022-07-04T19:46:58;29.00;75.00
50544;DHT22;41176;44.032;20.900;2022-07-04T19:49:27;29.00;75.50
50544;DHT22;41176;44.032;20.900;2022-07-04T19:51:59;28.90;76.30
50544;DHT22;41176;44.032;20.900;2022-07-04T19:54:43;28.70;77.10
50544;DHT22;41176;44.032;20.900;2022-07-04T19:57:11;28.60;77.10
50544;DHT22;41176;44.032;20.900;2022-07-04T19:59:37;28.40;77.80
50544;DHT22;41176;44.032;20.900;2022-07-04T20:02:04;28.30;78.20
50544;DHT22;41176;44.032;20.900;2022-07-04T20:04:30;28.20;78.40
50544;DHT22;41176;44.032;20.900;2022-07-04T20:06:56;28.20;78.80
50544;DHT22;41176;44.032;20.900;2022-07-04T20:09:21;28.10;78.80
50544;DHT22;41176;44.032;20.900;2022-07-04T20:11:56;28.00;79.40
50544;DHT22;41176;44.032;20.900;2022-07-04T20:14:25;28.00;79.70
50544;DHT22;41176;44.032;20.900;2022-07-04T20:16:51;28.00;79.70
50544;DHT22;41176;44.032;20.900;2022-07-04T20:19:25;28.00;80.00
50544;DHT22;41176;44.032;20.900;2022-07-04T20:21:51;27.90;80.20
50544;DHT22;41176;44.032;20.900;2022-07-04T20:24:18;27.90;80.20
50544;DHT22;41176;44.032;20.900;2022-07-04T20:26:45;27.80;80.20
50544;DHT22;41176;44.032;20.900;2022-07-04T20:29:11;27.80;80.10
50544;DHT22;41176;44.032;20.900;2022-07-04T20:31:42;27.80;80.50
50544;DHT22;41176;44.032;20.900;2022-07-04T20:34:14;27.50;80.90
50544;DHT22;41176;44.032;20.900;2022-07-04T20:36:45;27.20;82.30
50544;DHT22;41176;44.032;20.900;2022-07-04T20:39:12;27.10;82.60
50544;DHT22;41176;44.032;20.900;2022-07-04T20:41:38;27.10;82.80
50544;DHT22;41176;44.032;20.900;2022-07-04T20:44:05;27.10;82.90
50544;DHT22;41176;44.032;20.900;2022-07-04T20:46:31;27.10;83.20
50544;DHT22;41176;44.032;20.900;2022-07-04T20:48:57;27.10;83.60
50544;DHT22;41176;44.032;20.900;2022-07-04T20:51:26;27.10;83.80
50544;DHT22;41176;44.032;20.900;2022-07-04T20:53:52;27.10;84.00
50544;DHT22;41176;44.032;20.900;2022-07-04T20:56:18;27.10;84.00
50544;DHT22;41176;44.032;20.900;2022-07-04T20:58:48;27.10;84.10
50544;DHT22;41176;44.032;20.900;2022-07-04T21:01:25;27.10;83.90
50544;DHT22;41176;44.032;20.900;2022-07-04T21:03:54;27.10;83.80
50544;DHT22;41176;44.032;20.900;2022-07-04T21:06:20;27.00;83.90
50544;DHT22;41176;44.032;20.900;2022-07-04T21:08:47;26.90;84.70
50544;DHT22;41176;44.032;20.900;2022-07-04T21:11:13;26.80;85.20
50544;DHT22;41176;44.032;20.900;2022-07-04T21:13:39;26.70;84.00
50544;DHT22;41176;44.032;20.900;2022-07-04T21:16:05;26.60;84.50
50544;DHT22;41176;44.032;20.900;2022-07-04T21:18:36;26.60;84.50
50544;DHT22;41176;44.032;20.900;2022-07-04T21:21:06;26.70;84.30
50544;DHT22;41176;44.032;20.900;2022-07-04T21:23:32;26.70;84.10
50544;DHT22;41176;44.032;20.900;2022-07-04T21:25:58;26.70;84.40
50544;DHT22;41176;44.032;20.900;2022-07-04T21:28:24;26.60;84.90
50544;DHT22;41176;44.032;20.900;2022-07-04T21:30:52;26.50;86.00
50544;DHT22;41176;44.032;20.900;2022-07-04T21:33:19;26.40;86.60
50544;DHT22;41176;44.032;20.900;2022-07-04T21:35:45;26.20;86.90
50544;DHT22;41176;44.032;20.900;2022-07-04T21:38:11;26.10;87.90
50544;DHT22;41176;44.032;20.900;2022-07-04T21:40:38;26.00;88.20
50544;DHT22;41176;44.032;20.900;2022-07-04T21:43:04;25.90;88.80
50544;DHT22;41176;44.032;20.900;2022-07-04T21:45:30;25.80;89.30
50544;DHT22;41176;44.032;20.900;2022-07-04T21:47:55;25.70;90.00
50544;DHT22;41176;44.032;20.900;2022-07-04T21:50:22;25.60;90.00
50544;DHT22;41176;44.032;20.900;2022-07-04T21:52:48;25.70;90.00
50544;DHT22;41176;44.032;20.900;2022-07-04T21:55:14;25.60;89.60
50544;DHT22;41176;44.032;20.900;2022-07-04T21:57:41;25.60;89.70
50544;DHT22;41176;44.032;20.900;2022-07-04T22:00:09;25.60;90.00
50544;DHT22;41176;44.032;20.900;2022-07-04T22:02:35;25.50;90.10
50544;DHT22;41176;44.032;20.900;2022-07-04T22:05:01;25.50;90.10
50544;DHT22;41176;44.032;20.900;2022-07-04T22:07:27;25.60;90.00
50544;DHT22;41176;44.032;20.900;2022-07-04T22:09:53;25.60;89.70
50544;DHT22;41176;44.032;20.900;2022-07-04T22:12:19;25.60;89.80
50544;DHT22;41176;44.032;20.900;2022-07-04T22:14:45;25.60;89.50
50544;DHT22;41176;44.032;20.900;2022-07-04T22:17:11;25.60;89.20
50544;DHT22;41176;44.032;20.900;2022-07-04T22:19:37;25.70;89.20
50544;DHT22;41176;44.032;20.900;2022-07-04T22:22:03;25.60;89.20
50544;DHT22;41176;44.032;20.900;2022-07-04T22:24:29;25.60;89.50
50544;DHT22;41176;44.032;20.900;2022-07-04T22:26:55;25.60;89.90
50544;DHT22;41176;44.032;20.900;2022-07-04T22:29:20;25.60;90.10
50544;DHT22;41176;44.032;20.900;2022-07-04T22:31:46;25.50;90.10
50544;DHT22;41176;44.032;20.900;2022-07-04T22:34:12;25.50;90.40
50544;DHT22;41176;44.032;20.900;2022-07-04T22:36:38;25.40;90.80
50544;DHT22;41176;44.032;20.900;2022-07-04T22:39:04;25.40;90.70
50544;DHT22;41176;44.032;20.900;2022-07-04T22:41:30;25.40;90.80
50544;DHT22;41176;44.032;20.900;2022-07-04T22:43:56;25.30;90.90
50544;DHT22;41176;44.032;20.900;2022-07-04T22:46:22;25.30;90.90
50544;DHT22;41176;44.032;20.900;2022-07-04T22:48:48;25.40;90.80
50544;DHT22;41176;44.032;20.900;2022-07-04T22:51:16;25.30;90.90
50544;DHT22;41176;44.032;20.900;2022-07-04T22:53:44;25.30;90.90
50544;DHT22;41176;44.032;20.900;2022-07-04T22:56:30;25.30;91.30
50544;DHT22;41176;44.032;20.900;2022-07-04T22:58:56;25.30;91.10
50544;DHT22;41176;44.032;20.900;2022-07-04T23:01:24;25.20;91.20
50544;DHT22;41176;44.032;20.900;2022-07-04T23:03:50;25.10;91.30
50544;DHT22;41176;44.032;20.900;2022-07-04T23:06:16;25.00;91.50
50544;DHT22;41176;44.032;20.900;2022-07-04T23:08:42;25.00;91.70
50544;DHT22;41176;44.032;20.900;2022-07-04T23:11:08;25.00;91.80
50544;DHT22;41176;44.032;20.900;2022-07-04T23:13:34;25.00;91.60
50544;DHT22;41176;44.032;20.900;2022-07-04T23:16:00;25.10;91.60
50544;DHT22;41176;44.032;20.900;2022-07-04T23:18:26;25.10;91.50
50544;DHT22;41176;44.032;20.900;2022-07-04T23:20:52;25.10;91.50
50544;DHT22;41176;44.032;20.900;2022-07-04T23:23:19;25.20;91.50
50544;DHT22;41176;44.032;20.900;2022-07-04T23:25:45;25.20;91.50
50544;DHT22;41176;44.032;20.900;2022-07-04T23:28:11;25.20;91.60
50544;DHT22;41176;44.032;20.900;2022-07-04T23:30:37;25.10;91.80
50544;DHT22;41176;44.032;20.900;2022-07-04T23:33:03;25.00;92.10
50544;DHT22;41176;44.032;20.900;2022-07-04T23:35:29;24.90;92.60
50544;DHT22;41176;44.032;20.900;2022-07-04T23:37:55;24.70;93.00
50544;DHT22;41176;44.032;20.900;2022-07-04T23:40:21;24.70;93.40
50544;DHT22;41176;44.032;20.900;2022-07-04T23:42:47;24.70;93.50
50544;DHT22;41176;44.032;20.900;2022-07-04T23:45:13;24.60;93.70
50544;DHT22;41176;44.032;20.900;2022-07-04T23:47:39;24.60;93.90
50544;DHT22;41176;44.032;20.900;2022-07-04T23:50:06;24.70;94.00
50544;DHT22;41176;44.032;20.900;2022-07-04T23:52:32;24.70;93.80
50544;DHT22;41176;44.032;20.900;2022-07-04T23:54:58;24.80;93.80
50544;DHT22;41176;44.032;20.900;2022-07-04T23:57:25;24.80;93.70
50544;DHT22;41176;44.032;20.900;2022-07-04T23:59:51;24.80;93.60
